Time;durP1;ratioP1;P1;durP2;ratioP2;P2;SDS_P1;SDS_P2;PMS_P1;PMS_P2;Temp;Humidity;BMP_temperature;BMP_pressure;BME280_temperature;BME280_humidity;BME280_pressure;Samples;Min_cycle;Max_cycle;Signal;HPM_P1;HPM_P2
2022/07/31 00:00:33;;;;;;;4.28;2.83;;;;;;;25.40;100.00;99510.90;1677733;84;21081;-65
2022/07/31 00:03:00;;;;;;;8.68;2.98;;;;;;;25.40;100.00;99506.67;1680250;83;21061;-69
2022/07/31 00:05:27;;;;;;;8.05;3.50;;;;;;;25.40;100.00;99501.03;1679778;84;21026;-66
2022/07/31 00:07:53;;;;;;;7.35;2.72;;;;;;;25.37;100.00;99495.61;1683160;84;21572;-67
2022/07/31 00:10:20;;;;;;;7.28;3.47;;;;;;;25.36;100.00;99494.03;1680143;84;21046;-67
2022/07/31 00:12:49;;;;;;;5.05;3.17;;;;;;;25.30;100.00;99490.06;1673292;84;21040;-67
2022/07/31 00:15:18;;;;;;;9.38;3.10;;;;;;;25.26;100.00;99485.91;1683194;84;21025;-66
2022/07/31 00:17:45;;;;;;;8.53;3.20;;;;;;;25.21;100.00;99486.98;1680913;84;21921;-68
2022/07/31 00:20:16;;;;;;;10.78;3.15;;;;;;;25.19;100.00;99488.00;1679642;84;20997;-67
2022/07/31 00:22:44;;;;;;;5.42;3.17;;;;;;;25.17;100.00;99484.20;1680251;84;21816;-70
2022/07/31 00:25:12;;;;;;;3.70;2.77;;;;;;;25.18;100.00;99485.78;1681367;83;21140;-67
2022/07/31 00:27:43;;;;;;;6.25;3.17;;;;;;;25.21;100.00;99487.78;1682666;84;21057;-67
2022/07/31 00:30:19;;;;;;;5.17;2.90;;;;;;;25.21;100.00;99484.16;1682116;84;21146;-68
2022/07/31 00:32:47;;;;;;;6.70;3.30;;;;;;;25.20;100.00;99483.34;1681851;84;21032;-68
2022/07/31 00:35:15;;;;;;;5.78;3.45;;;;;;;25.19;100.00;99481.77;1683157;84;21123;-70
2022/07/31 00:37:44;;;;;;;11.80;3.65;;;;;;;25.17;100.00;99478.56;1680198;84;21029;-66
2022/07/31 00:40:17;;;;;;;5.95;3.35;;;;;;;25.14;100.00;99482.23;1680682;84;21555;-65
2022/07/31 00:42:44;;;;;;;;;;;;;;;25.10;100.00;99478.64;1683689;84;21056;-67
2022/07/31 00:45:12;;;;;;;4.33;2.87;;;;;;;25.06;100.00;99483.54;1680570;84;20176;-66
2022/07/31 00:47:41;;;;;;;6.80;3.27;;;;;;;25.01;100.00;99482.77;1682595;84;21510;-69
2022/07/31 00:50:11;;;;;;;5.03;3.70;;;;;;;24.97;100.00;99480.63;1680834;84;21017;-68
2022/07/31 00:52:40;;;;;;;5.42;2.85;;;;;;;24.91;100.00;99474.64;1681482;84;21079;-67
2022/07/31 00:55:10;;;;;;;4.28;2.83;;;;;;;24.89;100.00;99474.23;1682159;84;20990;-69
2022/07/31 00:57:45;;;;;;;6.42;4.10;;;;;;;24.85;100.00;99467.05;1682510;84;21045;-67
2022/07/31 01:00:14;;;;;;;7.37;2.87;;;;;;;24.83;100.00;99463.24;1681681;84;21166;-67
2022/07/31 01:02:41;;;;;;;3.80;2.70;;;;;;;24.80;100.00;99467.68;1679466;84;21069;-67
2022/07/31 01:05:10;;;;;;;8.15;3.22;;;;;;;24.78;100.00;99470.14;1678042;84;21005;-68
2022/07/31 01:07:37;;;;;;;5.83;3.05;;;;;;;24.78;100.00;99465.11;1678992;84;21048;-67
2022/07/31 01:10:08;;;;;;;7.80;2.60;;;;;;;24.79;100.00;99462.47;1682421;84;21483;-68
2022/07/31 01:12:48;;;;;;;12.93;2.98;;;;;;;24.75;100.00;99465.95;1679520;84;21127;-67
2022/07/31 01:15:17;;;;;;;3.02;2.72;;;;;;;24.72;100.00;99462.57;1680709;84;21040;-66
2022/07/31 01:17:49;;;;;;;5.53;3.12;;;;;;;24.70;100.00;99460.78;1679800;84;20989;-68
2022/07/31 01:20:19;;;;;;;7.72;2.62;;;;;;;24.64;100.00;99467.47;1683172;84;21542;-68
2022/07/31 01:23:20;;;;;;;9.88;2.65;;;;;;;24.61;100.00;99463.48;1669628;84;22271;-67
2022/07/31 01:26:09;;;;;;;4.97;3.00;;;;;;;24.60;100.00;99470.31;1677275;84;21973;-67
2022/07/31 01:29:18;;;;;;;10.05;3.17;;;;;;;24.57;100.00;99454.89;1644405;84;21573;-66
2022/07/31 01:31:51;;;;;;;8.95;2.65;;;;;;;24.54;100.00;99451.69;1678897;84;21611;-65
2022/07/31 01:34:27;;;;;;;5.53;2.60;;;;;;;24.50;100.00;99448.09;1659914;84;21032;-67
2022/07/31 01:37:10;;;;;;;4.83;2.75;;;;;;;24.46;100.00;99445.95;1681054;84;21001;-67
2022/07/31 01:39:39;;;;;;;6.97;2.60;;;;;;;24.46;100.00;99444.54;1680271;84;21501;-66
2022/07/31 01:42:07;;;;;;;11.70;3.10;;;;;;;24.39;100.00;99445.41;1663982;84;21556;-67
2022/07/31 01:44:41;;;;;;;6.05;2.70;;;;;;;24.40;100.00;99443.38;1681197;84;21085;-66
2022/07/31 01:47:12;;;;;;;8.98;2.87;;;;;;;24.37;100.00;99442.80;1679859;84;21069;-65
2022/07/31 01:49:41;;;;;;;3.72;2.45;;;;;;;24.36;100.00;99444.03;1682562;84;21632;-67
2022/07/31 01:52:10;;;;;;;4.85;2.70;;;;;;;24.35;100.00;99439.61;1683423;83;21113;-67
2022/07/31 01:54:40;;;;;;;7.70;2.90;;;;;;;24.33;100.00;99443.47;1680929;84;21009;-67
2022/07/31 01:57:10;;;;;;;7.72;2.33;;;;;;;24.31;100.00;99443.26;1679807;84;21049;-69
2022/07/31 01:59:38;;;;;;;5.65;2.45;;;;;;;24.28;100.00;99439.88;1682345;84;21069;-65
2022/07/31 02:02:11;;;;;;;5.35;2.47;;;;;;;24.26;100.00;99443.70;1667261;84;21537;-67
2022/07/31 02:04:40;;;;;;;7.10;2.67;;;;;;;24.26;100.00;99448.55;1681175;84;21185;-66
2022/07/31 02:07:08;;;;;;;5.67;2.50;;;;;;;24.27;100.00;99448.14;1679883;84;21088;-67
2022/07/31 02:09:38;;;;;;;4.92;2.70;;;;;;;24.26;100.00;99449.97;1681891;84;21322;-67
2022/07/31 02:12:06;;;;;;;9.40;2.20;;;;;;;24.24;100.00;99445.35;1668180;84;21517;-66
2022/07/31 02:14:34;;;;;;;3.60;2.42;;;;;;;24.21;100.00;99449.78;1680932;84;21510;-67
2022/07/31 02:17:03;;;;;;;4.75;2.50;;;;;;;24.19;100.00;99446.61;1702162;84;21054;-66
2022/07/31 02:19:41;;;;;;;9.25;2.70;;;;;;;24.21;100.00;99446.19;1679474;83;21009;-67
2022/07/31 02:22:14;;;;;;;4.20;2.47;;;;;;;24.20;100.00;99446.79;1668792;84;21025;-68
2022/07/31 02:24:43;;;;;;;4.85;1.95;;;;;;;24.21;100.00;99446.19;1680857;84;21044;-67
2022/07/31 02:27:11;;;;;;;8.65;2.75;;;;;;;24.21;100.00;99444.78;1679228;84;21053;-66
2022/07/31 02:29:41;;;;;;;5.83;2.30;;;;;;;24.20;100.00;99445.38;1682473;84;21760;-66
2022/07/31 02:32:09;;;;;;;5.60;2.47;;;;;;;24.21;100.00;99448.38;1679810;84;21091;-67
2022/07/31 02:34:38;;;;;;;6.50;2.60;;;;;;;24.18;100.00;99446.40;1644556;84;21592;-67
2022/07/31 02:37:04;;;;;;;4.22;1.85;;;;;;;24.15;100.00;99448.61;1673513;84;21598;-68
2022/07/31 02:39:31;;;;;;;3.25;2.27;;;;;;;24.14;100.00;99445.62;1679384;84;21002;-65
2022/07/31 02:41:59;;;;;;;5.20;2.27;;;;;;;24.11;100.00;99448.64;1667664;84;21346;-67
2022/07/31 02:44:30;;;;;;;4.20;1.90;;;;;;;24.08;100.00;99455.10;1682354;84;21028;-66
2022/07/31 02:47:01;;;;;;;4.80;1.98;;;;;;;24.07;100.00;99452.89;1680982;84;21474;-68
2022/07/31 02:49:33;;;;;;;4.17;2.37;;;;;;;24.10;100.00;99453.28;1679140;84;21052;-68
2022/07/31 02:52:04;;;;;;;5.83;2.05;;;;;;;24.08;100.00;99452.29;1680300;84;21526;-66
2022/07/31 02:54:33;;;;;;;4.42;2.20;;;;;;;24.07;100.00;99457.73;1679369;84;21085;-66
2022/07/31 02:57:01;;;;;;;3.50;2.05;;;;;;;24.07;100.00;99452.89;1680616;84;21637;-68
2022/07/31 02:59:29;;;;;;;4.25;2.02;;;;;;;24.02;100.00;99453.33;1683747;84;21072;-68
2022/07/31 03:01:57;;;;;;;4.80;2.17;;;;;;;24.06;100.00;99456.92;1681308;84;21087;-66
2022/07/31 03:04:26;;;;;;;3.45;2.22;;;;;;;24.10;100.00;99457.50;1681917;84;21565;-68
2022/07/31 03:06:58;;;;;;;5.17;2.05;;;;;;;24.11;100.00;99459.89;1669385;84;21781;-68
2022/07/31 03:09:29;;;;;;;9.40;2.45;;;;;;;24.12;100.00;99460.08;1681576;84;21131;-67
2022/07/31 03:12:00;;;;;;;5.42;2.30;;;;;;;24.14;100.00;99455.47;1678890;84;21100;-65
2022/07/31 03:14:29;;;;;;;4.78;2.10;;;;;;;24.16;100.00;99453.02;1681388;84;21056;-66
2022/07/31 03:17:03;;;;;;;6.85;2.42;;;;;;;24.17;100.00;99463.88;1667650;84;21578;-67
2022/07/31 03:19:30;;;;;;;8.40;2.52;;;;;;;24.18;100.00;99457.05;1679779;84;21164;-67
2022/07/31 03:21:58;;;;;;;6.35;2.87;;;;;;;24.20;100.00;99463.67;1671470;84;21065;-67
2022/07/31 03:24:29;;;;;;;14.05;2.70;;;;;;;24.22;100.00;99460.44;1679615;84;21013;-67
2022/07/31 03:26:56;;;;;;;11.43;2.92;;;;;;;24.16;100.00;99459.45;1676649;84;21081;-64
2022/07/31 03:29:24;;;;;;;6.12;2.62;;;;;;;24.24;100.00;99464.42;1681516;84;21088;-71
2022/07/31 03:31:55;;;;;;;10.98;2.27;;;;;;;24.25;100.00;99458.20;1665588;84;22114;-67
2022/07/31 03:34:24;;;;;;;6.50;2.50;;;;;;;24.29;100.00;99456.16;1679012;84;21080;-68
2022/07/31 03:36:52;;;;;;;2.70;1.90;;;;;;;24.23;100.00;99457.20;1682108;84;21549;-69
2022/07/31 03:39:21;;;;;;;3.00;1.87;;;;;;;24.27;100.00;99459.39;1680122;84;21013;-66
2022/07/31 03:41:51;;;;;;;4.30;2.17;;;;;;;24.30;100.00;99461.38;1680319;84;21017;-67
2022/07/31 03:44:19;;;;;;;9.40;2.50;;;;;;;24.26;100.00;99456.38;1676740;84;21154;-65
2022/07/31 03:46:46;;;;;;;5.53;2.05;;;;;;;24.28;100.00;99457.36;1679052;84;21089;-67
2022/07/31 03:49:15;;;;;;;4.37;2.30;;;;;;;24.37;100.00;99459.09;1677785;84;21505;-67
2022/07/31 03:51:43;;;;;;;6.58;1.90;;;;;;;24.42;100.00;99453.61;1682159;84;21524;-65
2022/07/31 03:54:11;;;;;;;3.08;1.87;;;;;;;24.44;100.00;99456.82;1680608;84;20975;-67
2022/07/31 03:56:58;;;;;;;3.05;1.92;;;;;;;24.48;100.00;99452.56;1641776;85;21747;-69
2022/07/31 03:59:26;;;;;;;2.62;1.90;;;;;;;24.53;100.00;99453.52;1666142;84;21006;-66
2022/07/31 04:01:54;;;;;;;10.98;1.90;;;;;;;24.53;100.00;99447.89;1681483;84;21103;-70
2022/07/31 04:04:23;;;;;;;7.45;2.00;;;;;;;24.61;100.00;99451.41;1678882;84;21084;-68
2022/07/31 04:07:04;;;;;;;3.05;1.90;;;;;;;24.63;100.00;99450.39;1678434;83;22162;-65
2022/07/31 04:09:31;;;;;;;3.08;1.90;;;;;;;24.66;100.00;99449.55;1682409;84;21137;-72
2022/07/31 04:12:02;;;;;;;2.22;1.70;;;;;;;24.70;100.00;99447.50;1677917;84;21058;-71
2022/07/31 04:14:29;;;;;;;2.62;1.72;;;;;;;24.73;100.00;99448.67;1678316;84;21080;-66
2022/07/31 04:16:57;;;;;;;6.28;1.80;;;;;;;24.77;100.00;99445.99;1680466;83;21037;-66
2022/07/31 04:19:29;;;;;;;4.15;1.72;;;;;;;24.82;100.00;99446.16;1678946;84;21013;-66
2022/07/31 04:21:58;;;;;;;2.92;2.00;;;;;;;24.87;100.00;99449.12;1680759;84;21053;-69
2022/07/31 04:24:25;;;;;;;8.05;1.92;;;;;;;24.91;100.00;99455.52;1679343;84;21096;-67
2022/07/31 04:27:03;;;;;;;5.35;1.30;;;;;;;25.02;100.00;99459.03;1678597;84;20991;-69
2022/07/31 04:29:35;;;;;;;7.83;2.10;;;;;;;25.05;100.00;99453.14;1680403;84;21049;-66
2022/07/31 04:32:03;;;;;;;4.58;2.00;;;;;;;25.10;100.00;99463.14;1680436;84;21517;-67
2022/07/31 04:34:36;;;;;;;5.97;1.90;;;;;;;25.14;100.00;99463.91;1676743;83;21490;-67
2022/07/31 04:37:03;;;;;;;6.70;2.30;;;;;;;25.24;100.00;99465.80;1677388;84;21501;-66
2022/07/31 04:39:35;;;;;;;5.62;2.72;;;;;;;25.31;100.00;99464.09;1667147;84;21060;-69
2022/07/31 04:42:01;;;;;;;4.70;1.90;;;;;;;25.28;100.00;99462.93;1677557;84;21017;-67
2022/07/31 04:44:37;;;;;;;4.70;2.02;;;;;;;25.31;100.00;99468.31;1673626;84;21085;-66
2022/07/31 04:47:07;;;;;;;12.50;1.77;;;;;;;25.33;100.00;99468.09;1657267;85;21447;-66
2022/07/31 04:49:36;;;;;;;8.78;1.98;;;;;;;25.32;100.00;99468.52;1659859;86;21059;-66
2022/07/31 04:52:05;;;;;;;4.80;2.08;;;;;;;25.35;100.00;99460.63;1687571;83;21112;-64
2022/07/31 04:54:33;;;;;;;4.50;2.05;;;;;;;25.35;100.00;99469.86;1673439;84;21552;-65
2022/07/31 04:57:01;;;;;;;5.28;1.85;;;;;;;25.34;100.00;99469.69;1666387;84;21774;-67
2022/07/31 04:59:31;;;;;;;4.92;2.20;;;;;;;25.38;100.00;99461.18;1681275;84;21219;-67
2022/07/31 05:02:01;;;;;;;3.75;2.20;;;;;;;25.47;100.00;99455.80;1682381;83;21520;-64
2022/07/31 05:04:29;;;;;;;9.40;2.15;;;;;;;25.57;100.00;99458.30;1679172;84;21088;-67
2022/07/31 05:07:02;;;;;;;3.52;1.62;;;;;;;25.64;100.00;99457.42;1677123;84;21013;-68
2022/07/31 05:09:32;;;;;;;9.35;1.98;;;;;;;25.69;100.00;99454.09;1685976;84;21092;-68
2022/07/31 05:12:00;;;;;;;4.55;1.80;;;;;;;25.75;100.00;99458.66;1692726;84;21215;-67
2022/07/31 05:14:33;;;;;;;3.47;1.70;;;;;;;25.86;100.00;99452.86;1692182;83;21022;-66
2022/07/31 05:17:00;;;;;;;7.55;2.10;;;;;;;25.91;100.00;99455.20;1692344;84;21096;-67
2022/07/31 05:19:32;;;;;;;3.12;1.80;;;;;;;25.93;100.00;99452.72;1690262;84;20994;-66
2022/07/31 05:22:06;;;;;;;3.67;2.00;;;;;;;25.95;100.00;99446.67;1687975;84;21050;-67
2022/07/31 05:24:41;;;;;;;3.98;1.90;;;;;;;26.00;100.00;99451.20;1679277;84;22075;-69
2022/07/31 05:27:15;;;;;;;3.08;1.80;;;;;;;26.06;100.00;99452.13;1676536;84;21554;-67
2022/07/31 05:29:45;;;;;;;2.95;1.65;;;;;;;26.16;100.00;99452.55;1680196;84;21050;-66
2022/07/31 05:32:15;;;;;;;3.70;1.82;;;;;;;26.11;100.00;99457.28;1657473;84;21029;-66
2022/07/31 05:34:43;;;;;;;9.48;1.98;;;;;;;26.15;100.00;99463.67;1677448;84;21525;-66
2022/07/31 05:37:14;;;;;;;2.90;1.92;;;;;;;26.16;100.00;99465.26;1678972;84;22227;-69
2022/07/31 05:39:42;;;;;;;13.10;2.22;;;;;;;26.23;100.00;99466.55;1680273;84;21050;-68
2022/07/31 05:42:10;;;;;;;7.55;2.00;;;;;;;26.29;100.00;99460.41;1618677;84;21033;-67
2022/07/31 05:44:47;;;;;;;6.10;1.82;;;;;;;26.38;100.00;99466.31;1676400;84;20978;-67
2022/07/31 05:47:13;;;;;;;3.05;1.62;;;;;;;26.44;100.00;99465.99;1678424;84;21105;-66
2022/07/31 05:49:40;;;;;;;5.33;1.70;;;;;;;26.51;100.00;99465.70;1680734;84;21115;-66
2022/07/31 05:52:09;;;;;;;3.92;2.05;;;;;;;26.65;100.00;99464.00;1656543;84;21014;-66
2022/07/31 05:54:36;;;;;;;5.78;2.25;;;;;;;26.67;100.00;99461.55;1681284;84;21049;-67
2022/07/31 05:57:22;;;;;;;5.95;2.05;;;;;;;26.72;100.00;99458.22;1610522;88;21018;-65
2022/07/31 05:59:51;;;;;;;4.92;2.30;;;;;;;26.81;100.00;99456.84;1656168;84;21018;-67
2022/07/31 06:02:22;;;;;;;4.55;2.67;;;;;;;26.88;100.00;99457.31;1678337;84;21582;-66
2022/07/31 06:05:02;;;;;;;7.70;2.08;;;;;;;27.05;100.00;99451.95;1573711;89;21568;-67
2022/07/31 06:07:30;;;;;;;8.58;2.02;;;;;;;27.09;100.00;99454.07;1678485;84;21038;-65
2022/07/31 06:09:59;;;;;;;5.15;2.20;;;;;;;27.22;100.00;99454.83;1677121;84;21070;-66
2022/07/31 06:12:28;;;;;;;8.78;2.30;;;;;;;27.29;100.00;99449.63;1628966;84;21557;-68
2022/07/31 06:14:58;;;;;;;2.22;1.80;;;;;;;27.29;100.00;99449.63;1679678;84;22006;-66
2022/07/31 06:17:41;;;;;;;5.90;2.95;;;;;;;27.29;100.00;99449.02;1680707;84;21004;-66
2022/07/31 06:20:15;;;;;;;11.85;2.62;;;;;;;27.33;100.00;99446.89;1679957;84;21100;-67
2022/07/31 06:22:44;;;;;;;9.23;2.00;;;;;;;27.40;100.00;99447.34;1679291;84;21143;-67
2022/07/31 06:25:11;;;;;;;12.43;2.30;;;;;;;27.31;100.00;99441.52;1679140;84;21024;-66
2022/07/31 06:27:40;;;;;;;13.45;2.70;;;;;;;27.40;100.00;99443.11;1681539;84;21013;-66
2022/07/31 06:30:09;;;;;;;6.53;1.95;;;;;;;27.45;100.00;99444.61;1679460;84;21021;-64
2022/07/31 06:32:36;;;;;;;5.25;2.12;;;;;;;27.52;100.00;99440.21;1681092;84;22143;-68
2022/07/31 06:35:09;;;;;;;7.97;2.02;;;;;;;27.57;100.00;99443.94;1682331;84;21006;-66
2022/07/31 06:37:42;;;;;;;16.42;2.55;;;;;;;27.71;100.00;99437.78;1667870;84;20989;-67
2022/07/31 06:40:10;;;;;;;7.80;2.65;;;;;;;27.74;100.00;99437.53;1679349;84;21268;-69
2022/07/31 06:42:39;;;;;;;7.45;2.08;;;;;;;27.77;100.00;99433.21;1637409;84;21073;-67
2022/07/31 06:45:09;;;;;;;7.10;2.30;;;;;;;27.78;100.00;99422.67;1682523;84;21065;-68
2022/07/31 06:47:36;;;;;;;4.17;2.02;;;;;;;28.05;96.57;99427.25;1681113;84;21048;-66
2022/07/31 06:50:05;;;;;;;5.90;2.62;;;;;;;28.06;98.19;99421.78;1679786;84;21079;-66
2022/07/31 06:52:40;;;;;;;4.47;1.67;;;;;;;28.24;97.06;99421.92;1681130;84;21176;-68
2022/07/31 06:55:09;;;;;;;7.00;2.33;;;;;;;28.23;97.84;99424.59;1666577;84;21116;-64
2022/07/31 06:57:37;;;;;;;8.75;2.20;;;;;;;28.25;97.40;99415.03;1681464;84;21166;-68
2022/07/31 07:00:10;;;;;;;4.60;1.92;;;;;;;28.45;97.13;99418.37;1682074;84;21041;-66
2022/07/31 07:02:37;;;;;;;8.78;2.62;;;;;;;28.60;95.07;99417.34;1680890;84;21084;-67
2022/07/31 07:05:06;;;;;;;5.80;2.27;;;;;;;28.51;97.27;99423.04;1679682;84;21666;-67
2022/07/31 07:07:38;;;;;;;10.38;2.50;;;;;;;28.26;98.56;99418.83;1679982;84;21013;-69
2022/07/31 07:10:12;;;;;;;4.90;2.15;;;;;;;28.37;95.72;99419.20;1679464;84;21056;-70
2022/07/31 07:13:01;;;;;;;4.10;2.00;;;;;;;28.40;95.48;99415.47;1680603;84;21084;-71
2022/07/31 07:15:29;;;;;;;5.40;1.98;;;;;;;28.52;94.23;99411.09;1677609;84;21070;-69
2022/07/31 07:18:01;;;;;;;5.85;2.10;;;;;;;28.54;92.38;99415.70;1679129;84;21064;-67
2022/07/31 07:20:38;;;;;;;3.47;2.00;;;;;;;28.68;93.66;99411.64;1661070;84;21051;-68
2022/07/31 07:23:06;;;;;;;4.20;2.00;;;;;;;28.80;92.96;99400.17;1680347;84;21069;-68
2022/07/31 07:25:44;;;;;;;5.97;2.00;;;;;;;28.64;92.49;99403.88;1679174;84;21037;-66
2022/07/31 07:28:12;;;;;;;6.85;1.80;;;;;;;28.80;91.50;99406.64;1680443;84;21541;-67
2022/07/31 07:30:43;;;;;;;6.65;2.22;;;;;;;28.77;91.32;99406.74;1679005;84;21838;-66
2022/07/31 07:33:12;;;;;;;5.10;1.82;;;;;;;28.84;89.69;99405.13;1680397;84;21030;-67
2022/07/31 07:35:40;;;;;;;4.83;1.62;;;;;;;28.86;89.03;99399.80;1678715;84;21018;-66
2022/07/31 07:38:08;;;;;;;4.60;1.80;;;;;;;29.02;88.60;99408.06;1677009;84;21027;-71
2022/07/31 07:40:37;;;;;;;7.87;2.20;;;;;;;28.96;91.24;99398.51;1658925;84;21022;-67
2022/07/31 07:43:04;;;;;;;4.65;1.82;;;;;;;29.01;89.05;99393.73;1679354;84;21258;-72
2022/07/31 07:45:30;;;;;;;5.37;1.60;;;;;;;29.27;88.97;99397.39;1656212;84;21090;-69
2022/07/31 07:48:00;;;;;;;2.77;1.70;;;;;;;29.39;89.52;99398.61;1679978;84;21062;-68
2022/07/31 07:50:27;;;;;;;7.90;1.85;;;;;;;29.48;88.17;99396.52;1636165;84;21149;-69
2022/07/31 07:53:08;;;;;;;5.30;2.10;;;;;;;29.46;85.48;99393.98;1680536;84;21530;-65
2022/07/31 07:55:36;;;;;;;6.33;1.70;;;;;;;29.64;83.81;99398.48;1670127;84;21148;-67
2022/07/31 07:58:11;;;;;;;4.53;1.70;;;;;;;29.55;84.90;99398.97;1665531;84;21085;-68
2022/07/31 08:00:46;;;;;;;5.65;1.75;;;;;;;29.74;84.05;99397.14;1642821;84;20995;-66
2022/07/31 08:03:13;;;;;;;7.28;1.60;;;;;;;29.88;82.75;99402.36;1680323;84;21042;-67
2022/07/31 08:05:42;;;;;;;7.95;1.55;;;;;;;29.71;81.88;99393.80;1678683;84;21011;-67
2022/07/31 08:08:12;;;;;;;11.63;2.20;;;;;;;29.62;82.21;99399.55;1678045;84;21158;-65
2022/07/31 08:10:51;;;;;;;7.80;2.45;;;;;;;29.63;80.94;99402.55;1679623;84;21089;-67
2022/07/31 08:13:22;;;;;;;6.10;1.80;;;;;;;29.68;78.69;99398.98;1678045;84;21022;-68
2022/07/31 08:15:54;;;;;;;6.60;2.00;;;;;;;29.69;77.41;99398.52;1597173;89;21112;-67
2022/07/31 08:18:23;;;;;;;7.20;1.75;;;;;;;29.73;77.05;99394.15;1662128;84;21154;-65
2022/07/31 08:20:50;;;;;;;25.08;3.83;;;;;;;29.74;75.64;99395.11;1646151;84;21044;-66
2022/07/31 08:23:19;;;;;;;5.80;1.80;;;;;;;29.79;76.34;99388.70;1679506;84;21021;-67
2022/07/31 08:25:45;;;;;;;10.28;2.00;;;;;;;29.89;76.01;99387.52;1680759;84;21021;-68
2022/07/31 08:28:13;;;;;;;6.08;1.67;;;;;;;29.98;76.78;99381.14;1682375;84;21026;-67
2022/07/31 08:30:40;;;;;;;3.45;1.80;;;;;;;30.06;73.45;99381.05;1683238;84;21529;-68
2022/07/31 08:33:08;;;;;;;7.10;1.47;;;;;;;30.17;73.55;99372.17;1680454;84;21088;-68
2022/07/31 08:35:36;;;;;;;8.15;1.95;;;;;;;30.24;69.70;99379.67;1682470;84;21084;-68
2022/07/31 08:38:06;;;;;;;5.70;1.42;;;;;;;30.30;67.39;99379.23;1667316;84;21059;-70
2022/07/31 08:40:37;;;;;;;8.98;2.05;;;;;;;30.36;66.51;99385.13;1679534;84;21073;-70
2022/07/31 08:43:03;;;;;;;3.27;1.47;;;;;;;30.39;66.10;99377.72;1681546;84;21082;-68
2022/07/31 08:45:32;;;;;;;6.83;1.65;;;;;;;30.44;66.53;99370.02;1668591;84;21121;-67
2022/07/31 08:48:01;;;;;;;6.22;1.80;;;;;;;30.66;66.14;99365.76;1682922;84;21025;-67
2022/07/31 08:50:37;;;;;;;6.70;1.35;;;;;;;30.75;64.69;99363.61;1680823;84;21036;-72
2022/07/31 08:53:09;;;;;;;5.45;1.25;;;;;;;30.83;65.03;99358.45;1678053;84;21603;-67
2022/07/31 08:55:49;;;;;;;9.13;1.37;;;;;;;30.91;62.95;99353.30;1680570;84;21585;-65
2022/07/31 08:58:18;;;;;;;7.28;1.27;;;;;;;31.01;60.64;99361.24;1679464;84;21100;-66
2022/07/31 09:00:49;;;;;;;3.65;1.42;;;;;;;31.07;59.60;99360.79;1681735;84;21075;-67
2022/07/31 09:03:16;;;;;;;9.03;1.60;;;;;;;31.13;58.77;99356.09;1668484;84;21620;-66
2022/07/31 09:05:54;;;;;;;10.13;1.30;;;;;;;31.17;55.95;99356.73;1681866;84;21004;-66
2022/07/31 09:08:22;;;;;;;8.18;1.50;;;;;;;31.22;56.26;99351.85;1679797;84;21029;-69
2022/07/31 09:11:09;;;;;;;4.62;1.15;;;;;;;31.20;56.59;99346.48;1679803;84;21088;-69
2022/07/31 09:13:40;;;;;;;5.65;1.60;;;;;;;31.25;54.39;99352.18;1682464;84;22138;-67
2022/07/31 09:16:11;;;;;;;7.90;1.37;;;;;;;31.28;53.54;99356.31;1664827;84;21556;-73
2022/07/31 09:18:43;;;;;;;4.42;1.65;;;;;;;31.30;53.27;99345.87;1679558;84;21040;-69
2022/07/31 09:21:12;;;;;;;6.30;1.70;;;;;;;31.31;53.15;99342.56;1680687;84;21061;-67
2022/07/31 09:23:46;;;;;;;4.28;1.10;;;;;;;31.43;54.10;99332.35;1682548;84;21192;-67
2022/07/31 09:26:15;;;;;;;5.75;1.87;;;;;;;31.50;54.83;99336.16;1681347;84;21065;-67
2022/07/31 09:28:49;;;;;;;9.13;2.08;;;;;;;31.56;51.69;99335.71;1680053;84;21508;-66
2022/07/31 09:31:19;;;;;;;9.20;1.45;;;;;;;31.61;49.61;99342.83;1680150;84;21029;-69
2022/07/31 09:34:00;;;;;;;2.77;1.30;;;;;;;31.62;49.92;99343.78;1670810;84;21104;-66
2022/07/31 09:36:32;;;;;;;1.92;1.00;;;;;;;31.68;50.04;99346.80;1681095;84;21852;-70
2022/07/31 09:39:13;;;;;;;4.42;1.30;;;;;;;31.68;50.70;99338.27;1682061;84;21509;-67
2022/07/31 09:41:51;;;;;;;5.05;1.30;;;;;;;31.75;50.46;99342.86;1642997;84;21025;-72
2022/07/31 09:44:20;;;;;;;2.00;1.10;;;;;;;31.82;46.97;99343.33;1681491;84;21572;-69
2022/07/31 09:46:51;;;;;;;1.90;1.22;;;;;;;32.15;48.87;99336.26;1680098;84;21536;-70
2022/07/31 09:49:23;;;;;;;3.00;1.35;;;;;;;32.00;49.73;99328.98;1679784;84;21192;-66
2022/07/31 09:51:51;;;;;;;;;;;;;;;32.09;49.30;99328.83;1671144;84;21076;-67
2022/07/31 09:54:25;;;;;;;4.67;1.00;;;;;;;32.16;51.25;99329.91;1681648;84;20472;-68
2022/07/31 09:56:57;;;;;;;6.87;3.42;;;;;;;32.12;48.57;99325.82;1653094;84;21037;-67
2022/07/31 09:59:28;;;;;;;7.53;2.15;;;;;;;31.99;47.68;99314.58;1680220;84;21081;-67
2022/07/31 10:01:57;;;;;;;2.70;1.67;;;;;;;32.11;47.42;99312.83;1680095;84;21859;-68
2022/07/31 10:04:25;;;;;;;9.55;1.80;;;;;;;32.17;49.99;99319.49;1679456;84;21047;-67
2022/07/31 10:06:53;;;;;;;2.95;1.02;;;;;;;32.20;49.07;99320.58;1667277;84;21528;-69
2022/07/31 10:09:21;;;;;;;1.72;0.88;;;;;;;32.19;44.65;99316.16;1646630;84;21022;-73
2022/07/31 10:12:13;;;;;;;2.02;0.88;;;;;;;32.18;45.98;99312.52;1681977;84;21044;-66
2022/07/31 10:14:43;;;;;;;2.40;0.98;;;;;;;32.27;47.96;99307.45;1681964;83;21216;-67
2022/07/31 10:17:12;;;;;;;20.97;2.22;;;;;;;32.32;48.03;99313.13;1679027;84;21077;-68
2022/07/31 10:19:41;;;;;;;9.90;1.57;;;;;;;32.40;51.47;99305.03;1677708;84;21181;-67
2022/07/31 10:22:11;;;;;;;11.45;1.40;;;;;;;32.41;52.20;99300.94;1678209;84;21089;-67
2022/07/31 10:24:46;;;;;;;2.72;1.07;;;;;;;32.46;51.16;99293.16;1680186;84;21683;-69
2022/07/31 10:27:17;;;;;;;4.47;1.72;;;;;;;32.48;49.28;99294.91;1679838;84;21782;-66
2022/07/31 10:29:45;;;;;;;6.72;1.17;;;;;;;32.45;46.43;99296.50;1677801;84;21088;-67
2022/07/31 10:32:12;;;;;;;6.03;1.40;;;;;;;32.45;46.39;99295.84;1678817;83;21045;-67
2022/07/31 10:34:42;;;;;;;7.47;1.22;;;;;;;32.49;48.74;99295.05;1679179;84;21045;-67
2022/07/31 10:38:03;;;;;;;7.72;1.27;;;;;;;32.51;50.02;99294.57;1678488;84;21513;-68
2022/07/31 10:40:55;;;;;;;5.78;1.35;;;;;;;32.57;50.00;99289.05;1650024;84;21136;-65
2022/07/31 10:43:37;;;;;;;1.77;1.10;;;;;;;32.62;48.96;99292.69;1669886;84;21084;-67
2022/07/31 10:46:30;;;;;;;5.90;1.57;;;;;;;32.71;50.41;99285.52;1678531;84;21033;-66
2022/07/31 10:49:06;;;;;;;4.25;1.10;;;;;;;32.78;47.47;99296.58;1672063;84;37762;-66
2022/07/31 10:51:53;;;;;;;1.92;1.10;;;;;;;32.83;46.89;99287.20;1679179;84;20977;-66
2022/07/31 10:54:46;;;;;;;6.58;1.30;;;;;;;32.88;47.04;99284.50;1679030;84;22006;-68
2022/07/31 10:57:33;;;;;;;9.45;1.27;;;;;;;32.93;48.36;99285.89;1678796;84;21045;-65
2022/07/31 11:00:24;;;;;;;3.60;1.25;;;;;;;33.00;45.89;99289.03;1660290;86;21078;-67
2022/07/31 11:03:18;;;;;;;3.42;0.95;;;;;;;33.00;45.60;99285.55;1660784;86;21522;-67
2022/07/31 11:06:03;;;;;;;;;;;;;;;32.97;44.95;99285.72;1674513;84;21013;-68
2022/07/31 11:08:46;;;;;;;5.85;1.17;;;;;;;32.96;47.82;99276.37;1675940;84;21223;-66
2022/07/31 11:11:15;;;;;;;7.65;1.60;;;;;;;33.12;49.85;99271.57;1676076;84;21002;-65
2022/07/31 11:13:54;;;;;;;4.35;1.00;;;;;;;33.24;50.30;99276.27;1679945;84;21096;-68
2022/07/31 11:16:31;;;;;;;15.53;1.62;;;;;;;33.32;48.19;99269.55;1678529;84;21009;-67
2022/07/31 11:19:05;;;;;;;4.87;1.20;;;;;;;33.23;48.62;99273.91;1678268;84;21069;-67
2022/07/31 11:21:41;;;;;;;;;;;;;;;33.24;49.97;99272.62;1679322;84;21017;-67
2022/07/31 11:24:18;;;;;;;3.65;1.30;;;;;;;33.24;48.70;99258.34;1677329;84;20173;-67
2022/07/31 11:26:59;;;;;;;5.62;1.55;;;;;;;33.28;49.03;99266.11;1679877;84;21065;-66
2022/07/31 11:29:31;;;;;;;4.60;1.32;;;;;;;33.21;48.14;99258.70;1680140;84;21089;-67
2022/07/31 11:32:12;;;;;;;3.98;1.17;;;;;;;33.23;48.13;99262.48;1679908;84;20998;-66
2022/07/31 11:34:50;;;;;;;3.45;1.32;;;;;;;33.18;46.41;99261.09;1682089;84;21839;-66
2022/07/31 11:37:22;;;;;;;4.97;2.35;;;;;;;33.12;48.83;99252.41;1682175;84;21049;-67
2022/07/31 11:39:49;;;;;;;2.45;1.10;;;;;;;33.15;48.57;99259.19;1680214;84;21065;-67
2022/07/31 11:42:16;;;;;;;5.10;1.25;;;;;;;33.15;48.92;99254.28;1680565;84;20993;-69
2022/07/31 11:44:45;;;;;;;6.40;1.30;;;;;;;33.21;53.41;99257.90;1682217;84;21573;-69
2022/07/31 11:47:13;;;;;;;4.83;1.12;;;;;;;33.28;54.00;99258.97;1681111;84;22111;-67
2022/07/31 11:49:43;;;;;;;5.92;1.40;;;;;;;33.41;54.40;99255.86;1680053;83;21479;-69